sensor_id;sensor_type;location;lat;lon;timestamp;P1;durP1;ratioP1;P2;durP2;ratioP2
8411;SDS011;4243;49.296;11.348;2022-09-06T00:00:25;121.57;;;2.90;;
8411;SDS011;4243;49.296;11.348;2022-09-06T00:02:52;121.60;;;2.60;;
8411;SDS011;4243;49.296;11.348;2022-09-06T00:05:20;121.70;;;2.50;;
8411;SDS011;4243;49.296;11.348;2022-09-06T00:07:48;122.30;;;2.60;;
8411;SDS011;4243;49.296;11.348;2022-09-06T00:10:15;121.80;;;2.47;;
8411;SDS011;4243;49.296;11.348;2022-09-06T00:12:43;122.07;;;2.50;;
8411;SDS011;4243;49.296;11.348;2022-09-06T00:15:10;121.97;;;2.60;;
8411;SDS011;4243;49.296;11.348;2022-09-06T00:17:38;121.83;;;2.47;;
8411;SDS011;4243;49.296;11.348;2022-09-06T00:20:05;121.97;;;2.60;;
8411;SDS011;4243;49.296;11.348;2022-09-06T00:22:34;121.57;;;2.70;;
8411;SDS011;4243;49.296;11.348;2022-09-06T00:25:03;121.87;;;2.77;;
8411;SDS011;4243;49.296;11.348;2022-09-06T00:27:32;122.53;;;3.00;;
8411;SDS011;4243;49.296;11.348;2022-09-06T00:30:00;122.10;;;3.10;;
8411;SDS011;4243;49.296;11.348;2022-09-06T00:32:30;122.20;;;3.10;;
8411;SDS011;4243;49.296;11.348;2022-09-06T00:34:57;121.93;;;3.00;;
8411;SDS011;4243;49.296;11.348;2022-09-06T00:37:25;122.10;;;3.23;;
8411;SDS011;4243;49.296;11.348;2022-09-06T00:39:52;121.87;;;3.00;;
8411;SDS011;4243;49.296;11.348;2022-09-06T00:42:20;121.67;;;3.03;;
8411;SDS011;4243;49.296;11.348;2022-09-06T00:44:48;122.00;;;3.00;;
8411;SDS011;4243;49.296;11.348;2022-09-06T00:47:15;121.87;;;3.27;;
8411;SDS011;4243;49.296;11.348;2022-09-06T00:49:45;121.73;;;3.27;;
8411;SDS011;4243;49.296;11.348;2022-09-06T00:52:16;121.77;;;3.10;;
8411;SDS011;4243;49.296;11.348;2022-09-06T00:54:45;121.27;;;3.17;;
8411;SDS011;4243;49.296;11.348;2022-09-06T00:57:14;121.80;;;3.10;;
8411;SDS011;4243;49.296;11.348;2022-09-06T00:59:43;121.80;;;3.00;;
8411;SDS011;4243;49.296;11.348;2022-09-06T01:02:12;121.90;;;2.90;;
8411;SDS011;4243;49.296;11.348;2022-09-06T01:04:40;121.93;;;3.10;;
8411;SDS011;4243;49.296;11.348;2022-09-06T01:15:59;122.00;;;3.70;;
8411;SDS011;4243;49.296;11.348;2022-09-06T01:30:59;121.47;;;3.63;;
8411;SDS011;4243;49.296;11.348;2022-09-06T01:39:39;121.80;;;3.27;;
8411;SDS011;4243;49.296;11.348;2022-09-06T01:42:11;121.77;;;3.33;;
8411;SDS011;4243;49.296;11.348;2022-09-06T01:44:40;122.00;;;3.33;;
8411;SDS011;4243;49.296;11.348;2022-09-06T01:54:00;122.20;;;2.90;;
8411;SDS011;4243;49.296;11.348;2022-09-06T01:56:41;122.00;;;3.00;;
8411;SDS011;4243;49.296;11.348;2022-09-06T02:05:35;122.43;;;3.17;;
8411;SDS011;4243;49.296;11.348;2022-09-06T02:08:39;121.87;;;3.00;;
8411;SDS011;4243;49.296;11.348;2022-09-06T02:11:12;122.97;;;3.13;;
8411;SDS011;4243;49.296;11.348;2022-09-06T02:13:46;122.70;;;3.37;;
8411;SDS011;4243;49.296;11.348;2022-09-06T02:16:19;123.17;;;3.63;;
8411;SDS011;4243;49.296;11.348;2022-09-06T02:19:11;123.67;;;4.47;;
8411;SDS011;4243;49.296;11.348;2022-09-06T02:21:47;123.87;;;4.70;;
8411;SDS011;4243;49.296;11.348;2022-09-06T02:24:18;123.97;;;5.50;;
8411;SDS011;4243;49.296;11.348;2022-09-06T02:26:52;124.07;;;6.03;;
8411;SDS011;4243;49.296;11.348;2022-09-06T02:29:19;125.07;;;7.30;;
8411;SDS011;4243;49.296;11.348;2022-09-06T02:31:53;124.67;;;7.67;;
8411;SDS011;4243;49.296;11.348;2022-09-06T02:34:40;124.57;;;7.17;;
8411;SDS011;4243;49.296;11.348;2022-09-06T02:37:09;123.87;;;6.40;;
8411;SDS011;4243;49.296;11.348;2022-09-06T02:39:40;123.90;;;7.27;;
8411;SDS011;4243;49.296;11.348;2022-09-06T02:42:08;124.33;;;6.60;;
8411;SDS011;4243;49.296;11.348;2022-09-06T02:44:38;125.07;;;8.00;;
8411;SDS011;4243;49.296;11.348;2022-09-06T02:47:05;124.80;;;6.53;;
8411;SDS011;4243;49.296;11.348;2022-09-06T02:49:32;125.10;;;7.77;;
8411;SDS011;4243;49.296;11.348;2022-09-06T02:52:00;123.80;;;6.87;;
8411;SDS011;4243;49.296;11.348;2022-09-06T02:54:28;124.40;;;7.37;;
8411;SDS011;4243;49.296;11.348;2022-09-06T02:56:56;124.17;;;6.40;;
8411;SDS011;4243;49.296;11.348;2022-09-06T02:59:23;123.77;;;6.00;;
8411;SDS011;4243;49.296;11.348;2022-09-06T03:01:51;123.63;;;5.20;;
8411;SDS011;4243;49.296;11.348;2022-09-06T03:04:18;123.77;;;5.27;;
8411;SDS011;4243;49.296;11.348;2022-09-06T03:06:46;122.97;;;4.87;;
8411;SDS011;4243;49.296;11.348;2022-09-06T03:09:14;123.30;;;4.30;;
8411;SDS011;4243;49.296;11.348;2022-09-06T03:11:41;122.93;;;4.00;;
8411;SDS011;4243;49.296;11.348;2022-09-06T03:14:09;122.80;;;3.33;;
8411;SDS011;4243;49.296;11.348;2022-09-06T03:16:37;122.50;;;3.20;;
8411;SDS011;4243;49.296;11.348;2022-09-06T03:19:04;122.27;;;3.00;;
8411;SDS011;4243;49.296;11.348;2022-09-06T03:21:31;122.00;;;2.80;;
8411;SDS011;4243;49.296;11.348;2022-09-06T03:23:59;122.13;;;2.90;;
8411;SDS011;4243;49.296;11.348;2022-09-06T03:26:26;122.50;;;2.90;;
8411;SDS011;4243;49.296;11.348;2022-09-06T03:28:55;122.90;;;3.03;;
8411;SDS011;4243;49.296;11.348;2022-09-06T03:31:22;123.10;;;3.07;;
8411;SDS011;4243;49.296;11.348;2022-09-06T03:33:50;122.97;;;3.13;;
8411;SDS011;4243;49.296;11.348;2022-09-06T03:36:17;122.60;;;3.03;;
8411;SDS011;4243;49.296;11.348;2022-09-06T03:38:45;122.27;;;2.87;;
8411;SDS011;4243;49.296;11.348;2022-09-06T03:41:12;122.53;;;3.10;;
8411;SDS011;4243;49.296;11.348;2022-09-06T03:43:40;122.17;;;2.93;;
8411;SDS011;4243;49.296;11.348;2022-09-06T03:46:07;122.40;;;3.20;;
8411;SDS011;4243;49.296;11.348;2022-09-06T03:48:35;122.40;;;3.00;;
8411;SDS011;4243;49.296;11.348;2022-09-06T03:51:02;122.43;;;3.20;;
8411;SDS011;4243;49.296;11.348;2022-09-06T03:53:30;121.87;;;3.00;;
8411;SDS011;4243;49.296;11.348;2022-09-06T03:55:57;122.40;;;3.10;;
8411;SDS011;4243;49.296;11.348;2022-09-06T03:58:28;122.87;;;3.10;;
8411;SDS011;4243;49.296;11.348;2022-09-06T04:01:00;122.70;;;2.87;;
8411;SDS011;4243;49.296;11.348;2022-09-06T04:03:30;122.20;;;3.03;;
8411;SDS011;4243;49.296;11.348;2022-09-06T04:05:58;122.43;;;2.97;;
8411;SDS011;4243;49.296;11.348;2022-09-06T04:08:25;121.97;;;2.93;;
8411;SDS011;4243;49.296;11.348;2022-09-06T04:10:54;122.50;;;3.00;;
8411;SDS011;4243;49.296;11.348;2022-09-06T04:13:23;122.47;;;3.10;;
8411;SDS011;4243;49.296;11.348;2022-09-06T04:15:51;122.10;;;3.13;;
8411;SDS011;4243;49.296;11.348;2022-09-06T04:18:19;121.60;;;3.20;;
8411;SDS011;4243;49.296;11.348;2022-09-06T04:20:48;121.70;;;3.10;;
8411;SDS011;4243;49.296;11.348;2022-09-06T04:23:18;122.27;;;3.00;;
8411;SDS011;4243;49.296;11.348;2022-09-06T04:25:47;121.43;;;2.97;;
8411;SDS011;4243;49.296;11.348;2022-09-06T04:28:17;121.77;;;3.00;;
8411;SDS011;4243;49.296;11.348;2022-09-06T04:30:50;121.70;;;3.10;;
8411;SDS011;4243;49.296;11.348;2022-09-06T04:33:19;121.97;;;3.10;;
8411;SDS011;4243;49.296;11.348;2022-09-06T04:35:51;121.10;;;3.00;;
8411;SDS011;4243;49.296;11.348;2022-09-06T04:38:22;121.50;;;3.30;;
8411;SDS011;4243;49.296;11.348;2022-09-06T04:40:50;121.73;;;3.30;;
8411;SDS011;4243;49.296;11.348;2022-09-06T04:43:18;121.60;;;3.20;;
8411;SDS011;4243;49.296;11.348;2022-09-06T04:45:45;121.70;;;3.30;;
8411;SDS011;4243;49.296;11.348;2022-09-06T04:48:13;121.87;;;3.17;;
8411;SDS011;4243;49.296;11.348;2022-09-06T04:50:41;121.70;;;3.33;;
8411;SDS011;4243;49.296;11.348;2022-09-06T04:53:09;121.07;;;3.30;;
8411;SDS011;4243;49.296;11.348;2022-09-06T04:55:37;121.60;;;3.10;;
8411;SDS011;4243;49.296;11.348;2022-09-06T04:58:06;121.37;;;3.27;;
8411;SDS011;4243;49.296;11.348;2022-09-06T05:00:34;122.00;;;3.20;;
8411;SDS011;4243;49.296;11.348;2022-09-06T05:03:04;121.93;;;3.10;;
8411;SDS011;4243;49.296;11.348;2022-09-06T05:05:31;121.57;;;3.23;;
8411;SDS011;4243;49.296;11.348;2022-09-06T05:07:59;121.10;;;3.10;;
8411;SDS011;4243;49.296;11.348;2022-09-06T05:10:27;121.20;;;3.03;;
8411;SDS011;4243;49.296;11.348;2022-09-06T05:12:54;121.30;;;3.03;;
8411;SDS011;4243;49.296;11.348;2022-09-06T05:15:22;121.57;;;3.00;;
8411;SDS011;4243;49.296;11.348;2022-09-06T05:17:49;121.57;;;2.90;;
8411;SDS011;4243;49.296;11.348;2022-09-06T05:20:17;120.27;;;2.87;;
8411;SDS011;4243;49.296;11.348;2022-09-06T05:22:50;120.50;;;3.00;;
8411;SDS011;4243;49.296;11.348;2022-09-06T05:25:21;120.60;;;3.00;;
8411;SDS011;4243;49.296;11.348;2022-09-06T05:27:49;120.47;;;2.93;;
8411;SDS011;4243;49.296;11.348;2022-09-06T05:30:16;120.17;;;2.87;;
8411;SDS011;4243;49.296;11.348;2022-09-06T05:32:44;120.60;;;2.90;;
8411;SDS011;4243;49.296;11.348;2022-09-06T05:35:12;120.33;;;2.90;;
8411;SDS011;4243;49.296;11.348;2022-09-06T05:37:39;120.40;;;2.80;;
8411;SDS011;4243;49.296;11.348;2022-09-06T05:40:07;120.17;;;2.97;;
8411;SDS011;4243;49.296;11.348;2022-09-06T05:42:35;120.57;;;2.83;;
8411;SDS011;4243;49.296;11.348;2022-09-06T05:45:03;120.63;;;3.10;;
8411;SDS011;4243;49.296;11.348;2022-09-06T05:47:31;120.10;;;3.00;;
8411;SDS011;4243;49.296;11.348;2022-09-06T05:50:00;120.23;;;3.00;;
8411;SDS011;4243;49.296;11.348;2022-09-06T05:52:28;120.40;;;3.00;;
8411;SDS011;4243;49.296;11.348;2022-09-06T05:54:56;120.67;;;3.03;;
8411;SDS011;4243;49.296;11.348;2022-09-06T05:57:23;120.47;;;3.03;;
8411;SDS011;4243;49.296;11.348;2022-09-06T05:59:51;120.17;;;3.00;;
8411;SDS011;4243;49.296;11.348;2022-09-06T06:02:19;119.87;;;2.90;;
8411;SDS011;4243;49.296;11.348;2022-09-06T06:04:47;120.27;;;3.00;;
8411;SDS011;4243;49.296;11.348;2022-09-06T06:07:17;120.07;;;2.83;;
8411;SDS011;4243;49.296;11.348;2022-09-06T06:09:44;120.60;;;3.00;;
8411;SDS011;4243;49.296;11.348;2022-09-06T06:12:11;119.73;;;2.77;;
8411;SDS011;4243;49.296;11.348;2022-09-06T06:14:38;119.83;;;3.17;;
8411;SDS011;4243;49.296;11.348;2022-09-06T06:17:06;119.90;;;3.20;;
8411;SDS011;4243;49.296;11.348;2022-09-06T06:19:33;120.27;;;3.93;;
8411;SDS011;4243;49.296;11.348;2022-09-06T06:22:02;119.47;;;3.70;;
8411;SDS011;4243;49.296;11.348;2022-09-06T06:24:30;119.60;;;3.93;;
8411;SDS011;4243;49.296;11.348;2022-09-06T06:26:57;120.30;;;4.70;;
8411;SDS011;4243;49.296;11.348;2022-09-06T06:29:24;120.57;;;5.50;;
8411;SDS011;4243;49.296;11.348;2022-09-06T06:31:52;120.33;;;4.80;;
8411;SDS011;4243;49.296;11.348;2022-09-06T06:34:19;120.40;;;5.43;;
8411;SDS011;4243;49.296;11.348;2022-09-06T06:36:47;120.00;;;5.20;;
8411;SDS011;4243;49.296;11.348;2022-09-06T06:39:14;120.17;;;4.87;;
8411;SDS011;4243;49.296;11.348;2022-09-06T06:41:41;120.20;;;4.47;;
8411;SDS011;4243;49.296;11.348;2022-09-06T06:44:25;119.77;;;4.07;;
8411;SDS011;4243;49.296;11.348;2022-09-06T06:46:53;120.00;;;4.03;;
8411;SDS011;4243;49.296;11.348;2022-09-06T06:49:23;119.73;;;3.77;;
8411;SDS011;4243;49.296;11.348;2022-09-06T06:51:51;119.90;;;4.00;;
8411;SDS011;4243;49.296;11.348;2022-09-06T06:54:18;120.17;;;4.07;;
8411;SDS011;4243;49.296;11.348;2022-09-06T06:56:46;119.77;;;4.17;;
8411;SDS011;4243;49.296;11.348;2022-09-06T06:59:13;119.70;;;3.73;;
8411;SDS011;4243;49.296;11.348;2022-09-06T07:01:40;119.67;;;3.80;;
8411;SDS011;4243;49.296;11.348;2022-09-06T07:04:07;120.03;;;4.10;;
8411;SDS011;4243;49.296;11.348;2022-09-06T07:06:53;119.70;;;3.70;;
8411;SDS011;4243;49.296;11.348;2022-09-06T07:09:41;119.83;;;3.47;;
8411;SDS011;4243;49.296;11.348;2022-09-06T07:12:29;119.77;;;3.47;;
8411;SDS011;4243;49.296;11.348;2022-09-06T07:14:56;119.27;;;3.43;;
8411;SDS011;4243;49.296;11.348;2022-09-06T07:17:24;119.40;;;3.23;;
8411;SDS011;4243;49.296;11.348;2022-09-06T07:19:51;119.90;;;3.50;;
8411;SDS011;4243;49.296;11.348;2022-09-06T07:22:39;119.40;;;3.27;;
8411;SDS011;4243;49.296;11.348;2022-09-06T07:25:07;119.70;;;3.53;;
8411;SDS011;4243;49.296;11.348;2022-09-06T07:27:38;119.53;;;3.20;;
8411;SDS011;4243;49.296;11.348;2022-09-06T07:30:14;119.20;;;3.33;;
8411;SDS011;4243;49.296;11.348;2022-09-06T07:32:43;119.40;;;3.40;;
8411;SDS011;4243;49.296;11.348;2022-09-06T07:35:10;119.43;;;3.20;;
8411;SDS011;4243;49.296;11.348;2022-09-06T07:37:38;119.40;;;3.30;;
8411;SDS011;4243;49.296;11.348;2022-09-06T07:40:06;119.03;;;3.50;;
8411;SDS011;4243;49.296;11.348;2022-09-06T07:42:35;118.43;;;3.33;;
8411;SDS011;4243;49.296;11.348;2022-09-06T07:45:03;117.50;;;2.70;;
8411;SDS011;4243;49.296;11.348;2022-09-06T07:47:31;116.87;;;2.30;;
8411;SDS011;4243;49.296;11.348;2022-09-06T07:50:18;117.17;;;2.20;;
8411;SDS011;4243;49.296;11.348;2022-09-06T07:53:06;116.70;;;2.70;;
8411;SDS011;4243;49.296;11.348;2022-09-06T07:55:42;116.50;;;2.80;;
8411;SDS011;4243;49.296;11.348;2022-09-06T07:58:10;117.07;;;2.90;;
8411;SDS011;4243;49.296;11.348;2022-09-06T08:03:41;116.97;;;3.23;;
8411;SDS011;4243;49.296;11.348;2022-09-06T08:06:10;116.10;;;3.00;;
8411;SDS011;4243;49.296;11.348;2022-09-06T08:08:38;116.37;;;3.37;;
8411;SDS011;4243;49.296;11.348;2022-09-06T08:11:22;116.97;;;2.63;;
8411;SDS011;4243;49.296;11.348;2022-09-06T08:13:53;115.70;;;2.03;;
8411;SDS011;4243;49.296;11.348;2022-09-06T08:16:22;114.77;;;1.70;;
8411;SDS011;4243;49.296;11.348;2022-09-06T08:18:56;115.37;;;1.53;;
8411;SDS011;4243;49.296;11.348;2022-09-06T08:21:27;115.40;;;1.90;;
8411;SDS011;4243;49.296;11.348;2022-09-06T08:24:01;115.17;;;2.00;;
8411;SDS011;4243;49.296;11.348;2022-09-06T08:26:31;115.10;;;1.70;;
8411;SDS011;4243;49.296;11.348;2022-09-06T08:29:02;114.50;;;1.67;;
8411;SDS011;4243;49.296;11.348;2022-09-06T08:31:34;113.90;;;1.70;;
8411;SDS011;4243;49.296;11.348;2022-09-06T08:34:05;114.17;;;1.80;;
8411;SDS011;4243;49.296;11.348;2022-09-06T08:36:33;113.70;;;1.80;;
8411;SDS011;4243;49.296;11.348;2022-09-06T08:39:02;113.40;;;1.80;;
8411;SDS011;4243;49.296;11.348;2022-09-06T08:41:36;113.57;;;1.77;;
8411;SDS011;4243;49.296;11.348;2022-09-06T08:47:22;113.37;;;1.80;;
8411;SDS011;4243;49.296;11.348;2022-09-06T08:49:51;113.27;;;2.00;;
8411;SDS011;4243;49.296;11.348;2022-09-06T08:55:36;112.27;;;1.80;;
8411;SDS011;4243;49.296;11.348;2022-09-06T08:58:31;111.60;;;1.70;;
8411;SDS011;4243;49.296;11.348;2022-09-06T09:01:22;112.67;;;2.27;;
8411;SDS011;4243;49.296;11.348;2022-09-06T09:03:55;112.20;;;2.20;;
8411;SDS011;4243;49.296;11.348;2022-09-06T09:06:28;112.07;;;2.30;;
8411;SDS011;4243;49.296;11.348;2022-09-06T09:11:33;112.30;;;2.23;;
8411;SDS011;4243;49.296;11.348;2022-09-06T09:14:07;111.67;;;2.00;;
8411;SDS011;4243;49.296;11.348;2022-09-06T09:16:41;112.47;;;2.63;;
8411;SDS011;4243;49.296;11.348;2022-09-06T09:19:09;111.67;;;2.90;;
8411;SDS011;4243;49.296;11.348;2022-09-06T09:21:37;112.10;;;3.10;;
8411;SDS011;4243;49.296;11.348;2022-09-06T09:24:09;112.30;;;4.00;;
8411;SDS011;4243;49.296;11.348;2022-09-06T09:26:48;113.00;;;4.43;;
8411;SDS011;4243;49.296;11.348;2022-09-06T09:29:30;113.30;;;5.13;;
8411;SDS011;4243;49.296;11.348;2022-09-06T09:32:01;114.67;;;7.00;;
8411;SDS011;4243;49.296;11.348;2022-09-06T09:34:30;114.77;;;8.20;;
8411;SDS011;4243;49.296;11.348;2022-09-06T09:37:12;115.40;;;8.03;;
8411;SDS011;4243;49.296;11.348;2022-09-06T09:43:20;114.73;;;6.17;;
8411;SDS011;4243;49.296;11.348;2022-09-06T09:48:58;114.27;;;6.07;;
8411;SDS011;4243;49.296;11.348;2022-09-06T09:51:39;114.30;;;7.00;;
8411;SDS011;4243;49.296;11.348;2022-09-06T09:54:13;113.67;;;5.60;;
8411;SDS011;4243;49.296;11.348;2022-09-06T09:56:56;112.77;;;3.83;;
8411;SDS011;4243;49.296;11.348;2022-09-06T09:59:25;111.80;;;2.43;;
8411;SDS011;4243;49.296;11.348;2022-09-06T10:05:00;111.17;;;2.10;;
8411;SDS011;4243;49.296;11.348;2022-09-06T10:07:50;111.20;;;2.37;;
8411;SDS011;4243;49.296;11.348;2022-09-06T10:10:24;111.60;;;2.63;;
8411;SDS011;4243;49.296;11.348;2022-09-06T10:15:56;110.40;;;2.00;;
8411;SDS011;4243;49.296;11.348;2022-09-06T10:21:14;109.70;;;1.90;;
8411;SDS011;4243;49.296;11.348;2022-09-06T10:26:50;107.97;;;1.60;;
8411;SDS011;4243;49.296;11.348;2022-09-06T10:29:33;107.20;;;1.20;;
8411;SDS011;4243;49.296;11.348;2022-09-06T10:32:47;107.37;;;1.50;;
8411;SDS011;4243;49.296;11.348;2022-09-06T10:35:37;107.50;;;1.60;;
8411;SDS011;4243;49.296;11.348;2022-09-06T10:47:18;108.40;;;5.63;;
8411;SDS011;4243;49.296;11.348;2022-09-06T10:49:49;108.07;;;4.60;;
8411;SDS011;4243;49.296;11.348;2022-09-06T10:52:27;107.50;;;4.30;;
8411;SDS011;4243;49.296;11.348;2022-09-06T10:55:04;107.37;;;3.63;;
8411;SDS011;4243;49.296;11.348;2022-09-06T10:57:45;106.40;;;2.20;;
8411;SDS011;4243;49.296;11.348;2022-09-06T11:00:46;106.03;;;2.00;;
8411;SDS011;4243;49.296;11.348;2022-09-06T11:03:18;106.10;;;1.60;;
8411;SDS011;4243;49.296;11.348;2022-09-06T11:06:13;105.30;;;1.80;;
8411;SDS011;4243;49.296;11.348;2022-09-06T11:08:56;104.63;;;1.70;;
8411;SDS011;4243;49.296;11.348;2022-09-06T11:14:23;104.70;;;1.10;;
8411;SDS011;4243;49.296;11.348;2022-09-06T11:16:58;104.57;;;1.30;;
8411;SDS011;4243;49.296;11.348;2022-09-06T11:20:07;105.50;;;1.30;;
8411;SDS011;4243;49.296;11.348;2022-09-06T11:26:19;106.17;;;1.67;;
8411;SDS011;4243;49.296;11.348;2022-09-06T11:29:03;106.57;;;1.30;;
8411;SDS011;4243;49.296;11.348;2022-09-06T11:31:51;107.17;;;1.20;;
8411;SDS011;4243;49.296;11.348;2022-09-06T11:34:40;107.10;;;1.17;;
8411;SDS011;4243;49.296;11.348;2022-09-06T11:37:25;106.57;;;1.10;;
8411;SDS011;4243;49.296;11.348;2022-09-06T11:53:25;106.50;;;1.57;;
8411;SDS011;4243;49.296;11.348;2022-09-06T11:58:31;106.00;;;1.80;;
8411;SDS011;4243;49.296;11.348;2022-09-06T12:09:40;105.60;;;1.20;;
8411;SDS011;4243;49.296;11.348;2022-09-06T12:12:09;106.17;;;1.57;;
8411;SDS011;4243;49.296;11.348;2022-09-06T12:17:57;107.07;;;2.17;;
8411;SDS011;4243;49.296;11.348;2022-09-06T12:34:20;104.90;;;1.10;;
8411;SDS011;4243;49.296;11.348;2022-09-06T12:37:01;104.73;;;1.07;;
8411;SDS011;4243;49.296;11.348;2022-09-06T12:39:32;105.23;;;1.10;;
8411;SDS011;4243;49.296;11.348;2022-09-06T12:42:01;104.67;;;1.80;;
8411;SDS011;4243;49.296;11.348;2022-09-06T12:44:40;105.70;;;1.90;;
8411;SDS011;4243;49.296;11.348;2022-09-06T12:47:19;104.60;;;2.03;;
8411;SDS011;4243;49.296;11.348;2022-09-06T12:50:05;105.60;;;1.90;;
8411;SDS011;4243;49.296;11.348;2022-09-06T12:52:52;105.50;;;1.83;;
8411;SDS011;4243;49.296;11.348;2022-09-06T12:55:27;105.33;;;1.80;;
8411;SDS011;4243;49.296;11.348;2022-09-06T12:58:03;105.07;;;1.80;;
8411;SDS011;4243;49.296;11.348;2022-09-06T13:00:35;105.13;;;1.80;;
8411;SDS011;4243;49.296;11.348;2022-09-06T13:06:06;105.27;;;2.27;;
8411;SDS011;4243;49.296;11.348;2022-09-06T13:08:41;105.67;;;2.40;;
8411;SDS011;4243;49.296;11.348;2022-09-06T13:11:17;105.37;;;2.10;;
8411;SDS011;4243;49.296;11.348;2022-09-06T13:13:59;106.97;;;2.37;;
8411;SDS011;4243;49.296;11.348;2022-09-06T13:16:49;108.17;;;2.30;;
8411;SDS011;4243;49.296;11.348;2022-09-06T13:19:29;108.97;;;2.70;;
8411;SDS011;4243;49.296;11.348;2022-09-06T13:22:08;109.73;;;1.77;;
8411;SDS011;4243;49.296;11.348;2022-09-06T13:24:38;109.87;;;1.50;;
8411;SDS011;4243;49.296;11.348;2022-09-06T13:30:00;109.77;;;1.70;;
8411;SDS011;4243;49.296;11.348;2022-09-06T13:32:34;109.27;;;1.70;;
8411;SDS011;4243;49.296;11.348;2022-09-06T13:35:20;109.80;;;1.70;;
8411;SDS011;4243;49.296;11.348;2022-09-06T13:37:51;109.07;;;1.50;;
8411;SDS011;4243;49.296;11.348;2022-09-06T13:43:28;106.77;;;1.80;;
8411;SDS011;4243;49.296;11.348;2022-09-06T13:46:08;106.90;;;2.37;;
8411;SDS011;4243;49.296;11.348;2022-09-06T13:48:37;107.37;;;2.63;;
8411;SDS011;4243;49.296;11.348;2022-09-06T13:51:05;107.43;;;2.50;;
8411;SDS011;4243;49.296;11.348;2022-09-06T13:53:34;106.97;;;2.27;;
8411;SDS011;4243;49.296;11.348;2022-09-06T13:56:02;106.70;;;1.83;;
8411;SDS011;4243;49.296;11.348;2022-09-06T13:58:33;107.27;;;2.10;;
8411;SDS011;4243;49.296;11.348;2022-09-06T14:01:02;108.23;;;2.93;;
8411;SDS011;4243;49.296;11.348;2022-09-06T14:03:38;109.83;;;2.63;;
8411;SDS011;4243;49.296;11.348;2022-09-06T14:06:07;109.63;;;1.57;;
8411;SDS011;4243;49.296;11.348;2022-09-06T14:08:36;109.27;;;1.33;;
8411;SDS011;4243;49.296;11.348;2022-09-06T14:11:24;109.77;;;1.43;;
8411;SDS011;4243;49.296;11.348;2022-09-06T14:13:52;109.57;;;1.80;;
8411;SDS011;4243;49.296;11.348;2022-09-06T14:16:20;111.27;;;1.93;;
8411;SDS011;4243;49.296;11.348;2022-09-06T14:18:48;111.27;;;1.63;;
8411;SDS011;4243;49.296;11.348;2022-09-06T14:21:17;112.13;;;1.87;;
8411;SDS011;4243;49.296;11.348;2022-09-06T14:23:48;111.80;;;2.03;;
8411;SDS011;4243;49.296;11.348;2022-09-06T14:26:18;112.77;;;2.30;;
8411;SDS011;4243;49.296;11.348;2022-09-06T14:28:47;112.40;;;2.30;;
8411;SDS011;4243;49.296;11.348;2022-09-06T14:31:23;112.77;;;2.30;;
8411;SDS011;4243;49.296;11.348;2022-09-06T14:33:53;111.57;;;1.90;;
8411;SDS011;4243;49.296;11.348;2022-09-06T14:36:23;110.73;;;2.10;;
8411;SDS011;4243;49.296;11.348;2022-09-06T14:38:52;110.90;;;2.80;;
8411;SDS011;4243;49.296;11.348;2022-09-06T14:41:19;109.27;;;2.00;;
8411;SDS011;4243;49.296;11.348;2022-09-06T14:43:48;108.37;;;1.60;;
8411;SDS011;4243;49.296;11.348;2022-09-06T14:46:19;108.63;;;1.30;;
8411;SDS011;4243;49.296;11.348;2022-09-06T14:48:54;108.27;;;1.40;;
8411;SDS011;4243;49.296;11.348;2022-09-06T14:51:33;108.10;;;1.30;;
8411;SDS011;4243;49.296;11.348;2022-09-06T14:54:03;107.40;;;1.50;;
8411;SDS011;4243;49.296;11.348;2022-09-06T14:56:34;107.17;;;1.40;;
8411;SDS011;4243;49.296;11.348;2022-09-06T14:59:05;107.23;;;2.17;;
8411;SDS011;4243;49.296;11.348;2022-09-06T15:01:34;107.47;;;2.17;;
8411;SDS011;4243;49.296;11.348;2022-09-06T15:04:04;107.77;;;2.80;;
8411;SDS011;4243;49.296;11.348;2022-09-06T15:06:35;107.77;;;2.20;;
8411;SDS011;4243;49.296;11.348;2022-09-06T15:09:05;108.00;;;2.77;;
8411;SDS011;4243;49.296;11.348;2022-09-06T15:11:37;108.17;;;2.20;;
8411;SDS011;4243;49.296;11.348;2022-09-06T15:14:17;108.07;;;2.50;;
8411;SDS011;4243;49.296;11.348;2022-09-06T15:16:52;108.50;;;2.80;;
8411;SDS011;4243;49.296;11.348;2022-09-06T15:19:23;108.97;;;2.47;;
8411;SDS011;4243;49.296;11.348;2022-09-06T15:21:53;108.67;;;2.23;;
8411;SDS011;4243;49.296;11.348;2022-09-06T15:24:22;109.40;;;1.60;;
8411;SDS011;4243;49.296;11.348;2022-09-06T15:26:50;109.17;;;1.40;;
8411;SDS011;4243;49.296;11.348;2022-09-06T15:29:17;109.70;;;1.40;;
8411;SDS011;4243;49.296;11.348;2022-09-06T15:31:46;109.57;;;1.40;;
8411;SDS011;4243;49.296;11.348;2022-09-06T15:34:24;109.47;;;1.40;;
8411;SDS011;4243;49.296;11.348;2022-09-06T15:36:52;109.47;;;1.37;;
8411;SDS011;4243;49.296;11.348;2022-09-06T15:39:19;109.70;;;1.50;;
8411;SDS011;4243;49.296;11.348;2022-09-06T15:41:48;109.47;;;1.50;;
8411;SDS011;4243;49.296;11.348;2022-09-06T15:44:17;109.23;;;1.43;;
8411;SDS011;4243;49.296;11.348;2022-09-06T15:49:27;108.70;;;1.50;;
8411;SDS011;4243;49.296;11.348;2022-09-06T15:51:57;109.43;;;1.60;;
8411;SDS011;4243;49.296;11.348;2022-09-06T15:54:28;110.10;;;1.80;;
8411;SDS011;4243;49.296;11.348;2022-09-06T15:57:14;110.97;;;2.10;;
8411;SDS011;4243;49.296;11.348;2022-09-06T15:59:43;110.80;;;1.97;;
8411;SDS011;4243;49.296;11.348;2022-09-06T16:02:11;112.00;;;1.60;;
8411;SDS011;4243;49.296;11.348;2022-09-06T16:04:39;112.23;;;1.70;;
8411;SDS011;4243;49.296;11.348;2022-09-06T16:07:06;112.20;;;2.10;;
8411;SDS011;4243;49.296;11.348;2022-09-06T16:09:34;112.70;;;1.90;;
8411;SDS011;4243;49.296;11.348;2022-09-06T16:12:01;112.83;;;2.20;;
8411;SDS011;4243;49.296;11.348;2022-09-06T16:14:29;113.43;;;2.37;;
8411;SDS011;4243;49.296;11.348;2022-09-06T16:16:57;113.57;;;1.80;;
8411;SDS011;4243;49.296;11.348;2022-09-06T16:19:25;113.33;;;1.70;;
8411;SDS011;4243;49.296;11.348;2022-09-06T16:21:52;113.87;;;1.60;;
8411;SDS011;4243;49.296;11.348;2022-09-06T16:24:19;113.77;;;1.60;;
8411;SDS011;4243;49.296;11.348;2022-09-06T16:26:48;113.80;;;1.70;;
8411;SDS011;4243;49.296;11.348;2022-09-06T16:29:16;114.33;;;1.80;;
8411;SDS011;4243;49.296;11.348;2022-09-06T16:31:44;114.00;;;1.67;;
8411;SDS011;4243;49.296;11.348;2022-09-06T16:34:12;114.47;;;1.80;;
8411;SDS011;4243;49.296;11.348;2022-09-06T16:36:40;114.97;;;1.73;;
8411;SDS011;4243;49.296;11.348;2022-09-06T16:39:08;115.40;;;2.50;;
8411;SDS011;4243;49.296;11.348;2022-09-06T16:41:37;115.00;;;2.07;;
8411;SDS011;4243;49.296;11.348;2022-09-06T16:44:12;115.37;;;2.90;;
8411;SDS011;4243;49.296;11.348;2022-09-06T16:46:46;115.20;;;2.33;;
8411;SDS011;4243;49.296;11.348;2022-09-06T16:49:15;115.27;;;2.40;;
8411;SDS011;4243;49.296;11.348;2022-09-06T16:51:44;115.40;;;2.43;;
8411;SDS011;4243;49.296;11.348;2022-09-06T16:54:14;115.40;;;2.43;;
8411;SDS011;4243;49.296;11.348;2022-09-06T16:56:43;115.70;;;2.40;;
8411;SDS011;4243;49.296;11.348;2022-09-06T16:59:11;115.23;;;2.37;;
8411;SDS011;4243;49.296;11.348;2022-09-06T17:01:40;115.37;;;2.27;;
8411;SDS011;4243;49.296;11.348;2022-09-06T17:04:08;115.50;;;2.20;;
8411;SDS011;4243;49.296;11.348;2022-09-06T17:06:37;115.50;;;2.20;;
8411;SDS011;4243;49.296;11.348;2022-09-06T17:09:15;115.73;;;2.13;;
8411;SDS011;4243;49.296;11.348;2022-09-06T17:11:44;115.70;;;1.80;;
8411;SDS011;4243;49.296;11.348;2022-09-06T17:14:14;116.37;;;1.93;;
8411;SDS011;4243;49.296;11.348;2022-09-06T17:16:42;115.90;;;1.90;;
8411;SDS011;4243;49.296;11.348;2022-09-06T17:19:33;116.97;;;2.00;;